Terminal Aerodrome Forecast
Issued by NWS Portland, ME

Home | Current Version | Previous Version | Text Only | Print | Product List | Glossary On
Versions: 1 2 3 4 5 6 7 8 9 10 11 12 13 14 15 16 17 18 19 20 21
000
FTUS41 KGYX 041326 AAA
TAFCON
TAF AMD
KCON 041326Z 0413/0512 11004KT P6SM BKN017 OVC025
     FM041400 08006KT P6SM OVC025
     FM042100 09006KT P6SM OVC010
     FM050000 06005KT 4SM -RA BR OVC007=

USA.gov is the U.S. government's official web portal to all federal, state and local government web resources and services.